createdAt,value
2019-04-07T00:01:18.524Z,34.77
2019-04-07T00:03:49.569Z,28.10
2019-04-07T00:06:21.415Z,29.00
2019-04-07T00:08:54.512Z,28.47
2019-04-07T00:11:25.596Z,25.90
2019-04-07T00:13:58.922Z,29.63
2019-04-07T00:16:30.936Z,27.93
2019-04-07T00:19:03.566Z,29.07
2019-04-07T00:21:34.324Z,28.00
2019-04-07T00:24:05.813Z,30.47
2019-04-07T00:26:36.945Z,24.43
2019-04-07T00:29:08.713Z,24.87
2019-04-07T00:31:41.553Z,28.27
2019-04-07T00:34:12.539Z,22.53
2019-04-07T00:36:43.580Z,29.90
2019-04-07T00:39:14.846Z,29.93
2019-04-07T00:41:47.491Z,31.73
2019-04-07T00:44:19.023Z,27.37
2019-04-07T00:46:51.003Z,26.57
2019-04-07T00:49:22.080Z,27.87
2019-04-07T00:51:53.982Z,27.90
2019-04-07T00:54:25.395Z,28.03
2019-04-07T00:56:56.573Z,29.77
2019-04-07T00:59:27.517Z,28.07
2019-04-07T01:01:58.222Z,27.50
2019-04-07T01:04:29.421Z,35.23
2019-04-07T01:07:00.289Z,33.13
2019-04-07T01:09:32.638Z,30.17
2019-04-07T01:12:04.251Z,31.57
2019-04-07T01:14:35.180Z,39.50
2019-04-07T01:17:06.168Z,32.63
2019-04-07T01:19:39.821Z,34.47
2019-04-07T01:22:13.236Z,33.80
2019-04-07T01:24:44.234Z,34.07
2019-04-07T01:27:15.732Z,35.47
2019-04-07T01:29:49.583Z,37.20
2019-04-07T01:32:20.341Z,36.43
2019-04-07T01:34:51.530Z,34.80
2019-04-07T01:37:22.241Z,39.27
2019-04-07T01:39:53.740Z,43.47
2019-04-07T01:42:32.251Z,42.77
2019-04-07T01:45:21.495Z,37.97
2019-04-07T01:47:54.122Z,37.60
2019-04-07T01:50:27.591Z,38.80
2019-04-07T01:53:05.898Z,37.07
2019-04-07T01:56:01.820Z,35.60
2019-04-07T01:58:43.553Z,39.03
2019-04-07T02:01:18.651Z,38.00
2019-04-07T02:03:57.285Z,41.27
2019-04-07T02:06:45.352Z,37.57
2019-04-07T02:09:18.352Z,29.23
2019-04-07T02:11:53.981Z,28.37
2019-04-07T02:14:53.337Z,35.27
2019-04-07T02:17:32.659Z,35.03
2019-04-07T02:20:20.955Z,40.97
2019-04-07T02:22:55.083Z,39.37
2019-04-07T02:25:39.643Z,41.80
2019-04-07T02:28:20.859Z,42.77
2019-04-07T02:30:59.234Z,43.77
2019-04-07T02:33:43.861Z,38.40
2019-04-07T02:36:25.544Z,38.47
2019-04-07T02:39:07.144Z,39.87
2019-04-07T02:41:46.509Z,40.57
2019-04-07T02:44:22.092Z,42.43
2019-04-07T02:47:03.904Z,42.70
2019-04-07T02:49:36.600Z,41.10
2019-04-07T02:52:09.177Z,44.50
2019-04-07T02:54:43.299Z,44.87
2019-04-07T02:57:19.544Z,41.90
2019-04-07T03:00:01.356Z,43.37
2019-04-07T03:02:47.695Z,42.80
2019-04-07T03:05:33.285Z,43.77
2019-04-07T03:08:06.151Z,41.40
2019-04-07T03:10:38.766Z,48.93
2019-04-07T03:13:11.285Z,43.03
2019-04-07T03:15:46.339Z,47.43
2019-04-07T03:18:34.428Z,42.90
2019-04-07T03:21:11.522Z,45.50
2019-04-07T03:23:44.155Z,41.00
2019-04-07T03:26:32.370Z,38.73
2019-04-07T03:29:08.541Z,38.47
2019-04-07T03:31:43.151Z,38.67
2019-04-07T03:34:26.248Z,43.93
2019-04-07T03:37:18.351Z,39.60
2019-04-07T03:39:38.392Z,45.20
2019-04-07T03:42:10.934Z,40.73
2019-04-07T03:44:43.545Z,43.57
2019-04-07T03:47:18.502Z,46.40
2019-04-07T03:50:00.407Z,41.10
2019-04-07T03:52:35.974Z,43.70
2019-04-07T03:55:13.062Z,46.23
2019-04-07T03:57:57.962Z,48.53
2019-04-07T04:01:08.221Z,45.50
2019-04-07T04:03:57.152Z,47.00
2019-04-07T04:06:32.636Z,46.43
2019-04-07T04:09:11.375Z,46.97
2019-04-07T04:12:01.299Z,43.33
2019-04-07T04:14:53.399Z,38.20
2019-04-07T04:17:25.012Z,43.97
2019-04-07T04:19:55.977Z,41.40
2019-04-07T04:22:28.979Z,37.30
2019-04-07T04:25:00.955Z,40.00
2019-04-07T04:27:33.302Z,39.97
2019-04-07T04:30:06.972Z,35.67
2019-04-07T04:32:37.693Z,44.57
2019-04-07T04:35:10.814Z,36.50
2019-04-07T04:37:48.156Z,44.97
2019-04-07T04:40:14.576Z,37.10
2019-04-07T04:42:45.260Z,43.77
2019-04-07T04:45:15.998Z,38.47
2019-04-07T04:47:46.976Z,39.73
2019-04-07T04:50:18.267Z,39.60
2019-04-07T04:52:49.279Z,40.97
2019-04-07T04:55:20.440Z,40.33
2019-04-07T04:57:51.290Z,36.47
2019-04-07T05:00:22.911Z,43.03
2019-04-07T05:02:53.627Z,50.10
2019-04-07T05:05:24.494Z,42.40
2019-04-07T05:08:00.646Z,43.87
2019-04-07T05:10:27.911Z,39.13
2019-04-07T05:12:58.934Z,38.20
2019-04-07T05:15:29.789Z,46.80
2019-04-07T05:18:00.557Z,46.53
2019-04-07T05:20:32.034Z,38.40
2019-04-07T05:23:05.192Z,41.93
2019-04-07T05:25:36.187Z,43.40
2019-04-07T05:28:07.497Z,42.43
2019-04-07T05:30:39.186Z,41.50
2019-04-07T05:33:09.995Z,42.77
2019-04-07T05:35:40.656Z,41.97
2019-04-07T05:38:11.493Z,46.73
2019-04-07T05:40:42.194Z,46.60
2019-04-07T05:43:13.105Z,49.03
2019-04-07T05:45:45.513Z,47.37
2019-04-07T05:48:19.451Z,48.20
2019-04-07T05:50:48.893Z,41.93
2019-04-07T05:53:19.585Z,51.23
2019-04-07T05:55:53.772Z,37.87
2019-04-07T05:58:23.322Z,43.67
2019-04-07T06:00:54.746Z,39.10
2019-04-07T06:03:25.510Z,44.43
2019-04-07T06:05:56.279Z,39.40
2019-04-07T06:08:35.531Z,42.77
2019-04-07T06:11:02.121Z,42.80
2019-04-07T06:13:32.984Z,39.50
2019-04-07T06:16:04.182Z,53.13
2019-04-07T06:18:35.789Z,43.27
2019-04-07T06:21:08.007Z,44.93
2019-04-07T06:23:39.710Z,48.13
2019-04-07T06:26:11.877Z,44.83
2019-04-07T06:28:43.887Z,48.40
2019-04-07T06:31:16.109Z,41.30
2019-04-07T06:33:47.904Z,41.87
2019-04-07T06:36:20.233Z,42.03
2019-04-07T06:38:52.657Z,37.60
2019-04-07T06:41:27.353Z,42.23
2019-04-07T06:44:09.530Z,38.27
2019-04-07T06:46:30.656Z,44.13
2019-04-07T06:49:04.885Z,41.43
2019-04-07T06:51:46.178Z,41.53
2019-04-07T06:54:37.696Z,40.07
2019-04-07T06:57:26.647Z,42.37
2019-04-07T07:00:02.430Z,40.37
2019-04-07T07:02:51.067Z,40.37
2019-04-07T07:05:26.751Z,38.37
2019-04-07T07:08:21.045Z,39.43
2019-04-07T07:11:10.573Z,35.67
2019-04-07T07:13:45.706Z,44.07
2019-04-07T07:16:35.002Z,38.63
2019-04-07T07:19:08.321Z,71.20
2019-04-07T07:21:57.844Z,40.80
2019-04-07T07:24:29.876Z,38.50
2019-04-07T07:27:02.668Z,38.33
2019-04-07T07:29:33.874Z,39.73
2019-04-07T07:32:06.328Z,44.60
2019-04-07T07:34:39.896Z,39.27
2019-04-07T07:37:10.608Z,34.13
2019-04-07T07:39:43.366Z,38.03
2019-04-07T07:42:14.713Z,34.27
2019-04-07T07:44:46.007Z,42.33
2019-04-07T07:47:19.767Z,36.37
2019-04-07T07:49:49.749Z,31.80
2019-04-07T07:52:21.952Z,35.20
2019-04-07T07:54:53.624Z,38.13
2019-04-07T07:57:24.980Z,35.37
2019-04-07T07:59:56.418Z,41.20
2019-04-07T08:02:29.057Z,34.67
2019-04-07T08:05:00.597Z,32.23
2019-04-07T08:07:31.461Z,33.70
2019-04-07T08:10:03.064Z,35.70
2019-04-07T08:12:34.933Z,34.60
2019-04-07T08:15:08.223Z,32.20
2019-04-07T08:17:39.222Z,35.63
2019-04-07T08:20:11.354Z,36.50
2019-04-07T08:22:44.858Z,32.03
2019-04-07T08:25:20.381Z,35.23
2019-04-07T08:27:52.086Z,36.15
2019-04-07T08:30:23.803Z,32.73
2019-04-07T08:32:57.630Z,32.45
2019-04-07T08:35:30.887Z,33.60
2019-04-07T08:38:01.623Z,34.08
2019-04-07T08:40:32.809Z,32.73
2019-04-07T08:43:03.643Z,30.68
2019-04-07T08:45:35.035Z,35.08
2019-04-07T08:48:06.466Z,25.27
2019-04-07T08:50:38.171Z,32.67
2019-04-07T08:53:13.568Z,31.97
2019-04-07T08:55:44.477Z,34.20
2019-04-07T08:58:25.146Z,25.77
2019-04-07T09:00:53.603Z,31.10
2019-04-07T09:03:25.212Z,30.50
2019-04-07T09:05:58.483Z,26.23
2019-04-07T09:08:30.720Z,23.98
2019-04-07T09:11:06.065Z,26.02
2019-04-07T09:13:37.339Z,23.92
2019-04-07T09:16:14.480Z,28.38
2019-04-07T09:19:04.961Z,31.90
2019-04-07T09:21:48.254Z,27.65
2019-04-07T09:24:38.139Z,24.72
2019-04-07T09:27:16.998Z,22.17
2019-04-07T09:29:58.947Z,22.42
2019-04-07T09:32:44.870Z,25.37
2019-04-07T09:35:34.199Z,25.95
2019-04-07T09:38:26.184Z,32.60
2019-04-07T09:40:58.490Z,25.65
2019-04-07T09:43:48.519Z,30.37
2019-04-07T09:46:21.233Z,26.65
2019-04-07T09:48:55.238Z,25.85
2019-04-07T09:51:28.106Z,26.42
2019-04-07T09:54:20.206Z,24.23
2019-04-07T09:56:51.885Z,22.20
2019-04-07T09:59:40.793Z,23.07
2019-04-07T10:02:34.153Z,23.10
2019-04-07T10:05:11.314Z,28.92
2019-04-07T10:08:03.240Z,24.57
2019-04-07T10:10:52.663Z,27.10
2019-04-07T10:13:40.963Z,25.95
2019-04-07T10:16:20.038Z,30.00
2019-04-07T10:18:56.468Z,23.45
2019-04-07T10:21:30.011Z,24.98
2019-04-07T10:24:20.597Z,25.12
2019-04-07T10:26:58.766Z,22.37
2019-04-07T10:29:37.683Z,21.87
2019-04-07T10:32:15.996Z,27.98
2019-04-07T10:35:04.802Z,23.00
2019-04-07T10:37:55.076Z,26.37
2019-04-07T10:40:31.047Z,25.10
2019-04-07T10:43:19.979Z,24.95
2019-04-07T10:46:09.338Z,25.25
2019-04-07T10:48:42.298Z,25.95
2019-04-07T10:51:21.371Z,27.60
2019-04-07T10:54:08.728Z,24.80
2019-04-07T10:56:57.604Z,29.40
2019-04-07T10:59:34.186Z,26.20
2019-04-07T11:02:10.271Z,29.15
2019-04-07T11:04:44.005Z,21.20
2019-04-07T11:07:32.785Z,25.88
2019-04-07T11:10:15.864Z,22.10
2019-04-07T11:12:53.769Z,23.67
2019-04-07T11:15:27.079Z,22.50
2019-04-07T11:18:00.368Z,25.40
2019-04-07T11:20:48.877Z,28.55
2019-04-07T11:23:28.516Z,24.37
2019-04-07T11:26:00.968Z,22.85
2019-04-07T11:28:51.458Z,24.27
2019-04-07T11:31:25.488Z,23.98
2019-04-07T11:33:58.861Z,28.60
2019-04-07T11:36:34.341Z,21.93
2019-04-07T11:39:29.089Z,19.87
2019-04-07T11:42:10.871Z,21.80
2019-04-07T11:45:01.441Z,24.05
2019-04-07T11:47:34.668Z,24.77
2019-04-07T11:50:11.338Z,28.55
2019-04-07T11:52:47.262Z,28.47
2019-04-07T11:55:21.707Z,28.52
2019-04-07T11:58:11.616Z,24.70
2019-04-07T12:00:39.107Z,27.58
2019-04-07T12:03:28.867Z,24.37
2019-04-07T12:06:07.571Z,23.42
2019-04-07T12:08:55.714Z,28.50
2019-04-07T12:11:30.992Z,24.95
2019-04-07T12:14:20.339Z,25.17
2019-04-07T12:16:55.307Z,23.52
2019-04-07T12:19:28.890Z,26.95
2019-04-07T12:22:13.201Z,20.35
2019-04-07T12:24:59.245Z,22.90
2019-04-07T12:27:33.372Z,25.65
2019-04-07T12:30:08.959Z,21.52
2019-04-07T12:32:41.887Z,27.15
2019-04-07T12:35:19.517Z,20.72
2019-04-07T12:38:04.045Z,19.67
2019-04-07T12:40:44.372Z,24.47
2019-04-07T12:43:30.345Z,20.32
2019-04-07T12:46:19.440Z,20.50
2019-04-07T12:48:55.416Z,19.17
2019-04-07T12:51:31.839Z,19.40
2019-04-07T12:54:08.193Z,22.32
2019-04-07T12:56:42.354Z,27.48
2019-04-07T12:59:16.890Z,21.87
2019-04-07T13:01:51.033Z,21.15
2019-04-07T13:04:28.492Z,20.80
2019-04-07T13:07:03.816Z,28.42
2019-04-07T13:09:53.688Z,20.72
2019-04-07T13:12:38.826Z,25.35
2019-04-07T13:15:30.311Z,33.65
2019-04-07T13:18:08.315Z,21.15
2019-04-07T13:20:50.321Z,20.40
2019-04-07T13:23:22.277Z,21.10
2019-04-07T13:25:56.664Z,19.15
2019-04-07T13:28:32.663Z,21.60
2019-04-07T13:31:18.101Z,24.15
2019-04-07T13:33:51.195Z,53.98
2019-04-07T13:36:25.241Z,22.82
2019-04-07T13:38:57.875Z,25.40
2019-04-07T13:41:43.413Z,23.73
2019-04-07T13:44:14.998Z,18.75
2019-04-07T13:46:59.359Z,19.55
2019-04-07T13:49:33.264Z,19.37
2019-04-07T13:52:07.556Z,17.40
2019-04-07T13:54:49.365Z,18.45
2019-04-07T13:57:27.797Z,17.27
2019-04-07T14:00:20.138Z,19.17
2019-04-07T14:03:13.402Z,18.45
2019-04-07T14:05:46.542Z,17.87
2019-04-07T14:08:25.796Z,19.62
2019-04-07T14:11:02.691Z,17.17
2019-04-07T14:13:40.716Z,37.85
2019-04-07T14:16:19.609Z,19.40
2019-04-07T14:18:58.573Z,16.85
2019-04-07T14:21:46.256Z,28.95
2019-04-07T14:24:27.890Z,16.65
2019-04-07T14:27:09.847Z,18.45
2019-04-07T14:29:49.993Z,16.02
2019-04-07T14:32:23.157Z,14.38
2019-04-07T14:35:03.066Z,13.75
2019-04-07T14:37:37.197Z,19.80
2019-04-07T14:40:20.414Z,19.10
2019-04-07T14:43:09.622Z,19.07
2019-04-07T14:45:49.273Z,16.60
2019-04-07T14:48:25.362Z,16.15
2019-04-07T14:51:06.741Z,18.37
2019-04-07T14:53:39.207Z,18.75
2019-04-07T14:56:14.389Z,19.80
2019-04-07T14:58:53.780Z,15.13
2019-04-07T15:01:25.713Z,18.50
2019-04-07T15:03:56.720Z,15.63
2019-04-07T15:06:31.149Z,15.53
2019-04-07T15:09:17.628Z,19.30
2019-04-07T15:11:51.192Z,23.80
2019-04-07T15:14:23.285Z,16.10
2019-04-07T15:16:54.684Z,20.15
2019-04-07T15:19:25.444Z,21.55
2019-04-07T15:21:58.226Z,16.93
2019-04-07T15:24:35.320Z,18.35
2019-04-07T15:27:05.910Z,18.23
2019-04-07T15:29:41.372Z,51.05
2019-04-07T15:32:10.547Z,25.27
2019-04-07T15:34:42.538Z,22.93
2019-04-07T15:37:15.410Z,19.95
2019-04-07T15:39:47.971Z,18.33
2019-04-07T15:42:33.094Z,18.40
2019-04-07T15:44:54.007Z,19.07
2019-04-07T15:47:26.571Z,13.45
2019-04-07T15:49:58.140Z,13.30
2019-04-07T15:52:31.640Z,16.85
2019-04-07T15:55:06.279Z,19.32
2019-04-07T15:57:37.245Z,15.88
2019-04-07T16:00:08.667Z,19.62
2019-04-07T16:02:42.216Z,16.17
2019-04-07T16:05:14.784Z,21.33
2019-04-07T16:07:46.718Z,19.73
2019-04-07T16:10:21.289Z,20.00
2019-04-07T16:12:52.776Z,23.17
2019-04-07T16:15:23.659Z,29.53
2019-04-07T16:17:56.793Z,17.17
2019-04-07T16:20:32.463Z,96.20
2019-04-07T16:23:00.880Z,30.43
2019-04-07T16:25:32.378Z,20.70
2019-04-07T16:28:03.762Z,19.13
2019-04-07T16:30:34.886Z,22.43
2019-04-07T16:33:06.195Z,21.40
2019-04-07T16:35:38.344Z,23.33
2019-04-07T16:38:10.947Z,22.23
2019-04-07T16:40:42.417Z,24.50
2019-04-07T16:43:17.348Z,21.20
2019-04-07T16:45:47.163Z,21.33
2019-04-07T16:48:19.688Z,27.13
2019-04-07T16:50:54.747Z,19.23
2019-04-07T16:53:23.701Z,19.77
2019-04-07T16:55:55.931Z,23.13
2019-04-07T16:58:27.611Z,24.70
2019-04-07T17:00:59.008Z,25.00
2019-04-07T17:03:31.036Z,27.10
2019-04-07T17:06:05.299Z,29.30
2019-04-07T17:08:39.127Z,33.23
2019-04-07T17:11:10.891Z,34.87
2019-04-07T17:13:42.972Z,62.03
2019-04-07T17:16:14.660Z,49.27
2019-04-07T17:18:47.900Z,39.77
2019-04-07T17:21:22.428Z,47.67
2019-04-07T17:23:55.750Z,40.47
2019-04-07T17:26:27.690Z,134.13
2019-04-07T17:28:59.723Z,38.80
2019-04-07T17:31:33.609Z,48.33
2019-04-07T17:34:09.823Z,46.27
2019-04-07T17:36:40.939Z,52.93
2019-04-07T17:39:26.118Z,64.53
2019-04-07T17:41:59.446Z,75.23
2019-04-07T17:44:33.968Z,94.80
2019-04-07T17:47:13.660Z,59.80
2019-04-07T17:49:50.417Z,72.37
2019-04-07T17:52:29.102Z,48.40
2019-04-07T17:55:14.046Z,43.07
2019-04-07T17:57:49.537Z,54.53
2019-04-07T18:00:40.928Z,75.27
2019-04-07T18:03:17.785Z,61.80
2019-04-07T18:05:59.286Z,47.43
2019-04-07T18:08:41.811Z,53.47
2019-04-07T18:11:18.833Z,59.20
2019-04-07T18:13:57.591Z,38.47
2019-04-07T18:16:29.177Z,23.23
2019-04-07T18:19:05.361Z,39.07
2019-04-07T18:21:44.834Z,40.10
2019-04-07T18:24:22.735Z,31.87
2019-04-07T18:26:55.631Z,42.20
2019-04-07T18:29:30.982Z,54.77
2019-04-07T18:32:07.546Z,61.80
2019-04-07T18:34:58.439Z,90.23
2019-04-07T18:37:48.481Z,100.17
2019-04-07T18:40:29.521Z,81.13
2019-04-07T18:43:20.221Z,99.33
2019-04-07T18:46:11.909Z,80.67
2019-04-07T18:48:49.074Z,67.47
2019-04-07T18:51:34.192Z,82.33
2019-04-07T18:54:26.912Z,57.37
2019-04-07T18:57:14.070Z,58.87
2019-04-07T19:00:04.216Z,49.57
2019-04-07T19:02:46.409Z,50.73
2019-04-07T19:05:22.242Z,61.07
2019-04-07T19:08:11.738Z,54.70
2019-04-07T19:11:10.302Z,43.90
2019-04-07T19:13:44.962Z,39.73
2019-04-07T19:16:22.045Z,52.67
2019-04-07T19:19:10.651Z,63.77
2019-04-07T19:21:47.123Z,57.93
2019-04-07T19:24:22.737Z,48.03
2019-04-07T19:27:10.493Z,51.37
2019-04-07T19:29:39.150Z,84.57
2019-04-07T19:32:14.685Z,88.03
2019-04-07T19:34:49.256Z,79.27
2019-04-07T19:37:42.350Z,75.60
2019-04-07T19:40:16.708Z,79.73
2019-04-07T19:43:10.715Z,61.67
2019-04-07T19:45:47.265Z,58.60
2019-04-07T19:48:21.024Z,60.30
2019-04-07T19:51:03.705Z,54.70
2019-04-07T19:53:43.237Z,44.27
2019-04-07T19:56:31.452Z,46.70
2019-04-07T19:59:13.962Z,58.13
2019-04-07T20:01:49.129Z,50.30
2019-04-07T20:04:44.153Z,46.90
2019-04-07T20:07:31.641Z,48.03
2019-04-07T20:10:19.957Z,52.23
2019-04-07T20:12:59.048Z,52.80
2019-04-07T20:15:49.606Z,49.73
2019-04-07T20:18:28.291Z,49.27
2019-04-07T20:21:21.273Z,47.60
2019-04-07T20:24:07.029Z,52.10
2019-04-07T20:26:56.749Z,46.27
2019-04-07T20:29:31.707Z,55.40
2019-04-07T20:32:11.082Z,43.80
2019-04-07T20:34:45.047Z,54.97
2019-04-07T20:37:35.043Z,52.53
2019-04-07T20:40:19.332Z,62.23
2019-04-07T20:42:58.283Z,58.93
2019-04-07T20:45:50.048Z,50.30
2019-04-07T20:48:25.754Z,49.33
2019-04-07T20:51:17.690Z,45.43
2019-04-07T20:53:51.520Z,52.53
2019-04-07T20:56:36.343Z,54.90
2019-04-07T20:59:26.936Z,58.43
2019-04-07T21:02:08.642Z,62.40
2019-04-07T21:04:52.116Z,59.30
2019-04-07T21:07:28.336Z,55.93
2019-04-07T21:10:06.544Z,60.93
2019-04-07T21:12:52.693Z,50.67
2019-04-07T21:15:31.508Z,43.43
2019-04-07T21:18:18.745Z,41.47
2019-04-07T21:21:04.525Z,52.63
2019-04-07T21:23:52.966Z,54.63
2019-04-07T21:26:27.788Z,59.40
2019-04-07T21:29:08.159Z,58.23
2019-04-07T21:31:39.815Z,60.03
2019-04-07T21:34:12.378Z,65.83
2019-04-07T21:36:57.231Z,55.10
2019-04-07T21:39:31.823Z,51.73
2019-04-07T21:42:19.937Z,54.57
2019-04-07T21:45:07.746Z,56.80
2019-04-07T21:47:41.812Z,51.50
2019-04-07T21:50:24.586Z,58.93
2019-04-07T21:53:03.141Z,53.60
2019-04-07T21:55:52.086Z,62.10
2019-04-07T21:58:40.708Z,82.73
2019-04-07T22:01:16.662Z,75.40
2019-04-07T22:03:49.750Z,66.57
2019-04-07T22:06:37.411Z,55.53
2019-04-07T22:09:20.561Z,61.03
2019-04-07T22:11:53.674Z,56.23
2019-04-07T22:14:24.523Z,51.33
2019-04-07T22:16:55.230Z,53.80
2019-04-07T22:19:26.122Z,55.43
2019-04-07T22:21:57.013Z,54.90
2019-04-07T22:24:32.166Z,59.43
2019-04-07T22:27:04.289Z,52.63
2019-04-07T22:29:34.937Z,64.77
2019-04-07T22:32:07.431Z,71.73
2019-04-07T22:34:38.388Z,61.87
2019-04-07T22:37:10.106Z,68.20
2019-04-07T22:39:41.775Z,51.67
2019-04-07T22:42:15.256Z,65.90
2019-04-07T22:44:46.220Z,65.50
2019-04-07T22:47:19.702Z,48.83
2019-04-07T22:49:50.964Z,70.10
2019-04-07T22:52:22.571Z,72.70
2019-04-07T22:54:54.567Z,82.57
2019-04-07T22:57:26.007Z,84.50
2019-04-07T22:59:56.970Z,81.70
2019-04-07T23:02:27.967Z,69.53
2019-04-07T23:04:58.807Z,63.13
2019-04-07T23:07:29.994Z,62.60
2019-04-07T23:10:01.233Z,77.60
2019-04-07T23:12:34.083Z,89.40
2019-04-07T23:15:06.954Z,74.30
2019-04-07T23:17:37.744Z,67.83
2019-04-07T23:20:09.989Z,62.40
2019-04-07T23:22:42.343Z,69.63
2019-04-07T23:25:13.378Z,66.37
2019-04-07T23:27:44.302Z,60.67
2019-04-07T23:30:17.328Z,67.60
2019-04-07T23:32:48.470Z,54.43
2019-04-07T23:35:20.114Z,56.57
2019-04-07T23:37:52.146Z,65.63
2019-04-07T23:40:23.744Z,64.67
2019-04-07T23:42:55.357Z,64.17
2019-04-07T23:45:26.089Z,66.23
2019-04-07T23:47:56.959Z,96.20
2019-04-07T23:50:27.915Z,81.53
2019-04-07T23:53:01.591Z,80.57
2019-04-07T23:55:32.279Z,91.27
2019-04-07T23:58:03.051Z,80.10
